Time;durP1;ratioP1;P1;durP2;ratioP2;P2;SDS_P1;SDS_P2;PMS_P1;PMS_P2;Temp;Humidity;BMP_temperature;BMP_pressure;BME280_temperature;BME280_humidity;BME280_pressure;Samples;Min_cycle;Max_cycle;Signal;HPM_P1;HPM_P2
2021/06/25 00:00:59;;;;;;;12.13;9.68;;;;;;;17.60;83.52;100014.13;2215905;40;20042;-86
2021/06/25 00:02:31;;;;;;;13.52;9.30;;;;;;;17.54;83.54;100018.41;2216150;40;20041;-85
2021/06/25 00:04:03;;;;;;;10.05;7.38;;;;;;;17.53;83.59;100015.88;2215611;40;20030;-84
2021/06/25 00:05:35;;;;;;;11.63;7.82;;;;;;;17.53;83.55;100011.34;2215477;40;20014;-85
2021/06/25 00:07:07;;;;;;;9.68;8.23;;;;;;;17.49;83.62;100010.03;2215648;40;20234;-85
2021/06/25 00:08:39;;;;;;;9.60;7.88;;;;;;;17.52;83.63;100011.53;2215713;40;20026;-85
2021/06/25 00:10:12;;;;;;;9.77;6.80;;;;;;;17.51;83.61;100018.78;2215810;40;20026;-86
2021/06/25 00:11:44;;;;;;;10.05;7.57;;;;;;;17.54;83.46;100010.31;2215732;40;20034;-85
2021/06/25 00:13:17;;;;;;;9.48;6.75;;;;;;;17.57;83.26;100007.19;2215601;40;20045;-85
2021/06/25 00:14:50;;;;;;;7.70;6.22;;;;;;;17.62;82.99;100007.47;2215621;40;20033;-85
2021/06/25 00:16:21;;;;;;;10.30;7.35;;;;;;;17.67;83.07;100006.91;2215847;40;20034;-86
2021/06/25 00:17:54;;;;;;;10.73;7.35;;;;;;;17.66;83.01;100002.53;2215736;40;20041;-87
2021/06/25 00:19:24;;;;;;;8.73;6.70;;;;;;;17.60;82.84;100006.81;2215667;40;20062;-85
2021/06/25 00:20:56;;;;;;;8.27;6.15;;;;;;;17.55;83.07;100003.88;2215033;40;20034;-85
2021/06/25 00:22:28;;;;;;;7.82;5.80;;;;;;;17.57;82.79;100004.50;2215707;40;20057;-86
2021/06/25 00:24:00;;;;;;;12.48;5.90;;;;;;;17.55;83.07;100003.03;2215573;40;20038;-85
2021/06/25 00:25:32;;;;;;;5.90;4.55;;;;;;;17.51;82.75;100007.97;2216054;40;20033;-85
2021/06/25 00:27:04;;;;;;;6.30;4.55;;;;;;;17.59;83.05;99999.75;2215601;40;20034;-86
2021/06/25 00:28:37;;;;;;;7.97;4.10;;;;;;;17.67;82.89;100006.91;2215522;40;20033;-85
2021/06/25 00:30:09;;;;;;;8.13;5.00;;;;;;;17.70;82.48;100006.53;2215347;40;20030;-84
2021/06/25 00:31:41;;;;;;;6.95;4.43;;;;;;;17.69;82.26;100009.41;2215673;40;20037;-88
2021/06/25 00:33:12;;;;;;;7.82;4.78;;;;;;;17.62;82.14;100002.06;2215590;40;20685;-84
2021/06/25 00:34:43;;;;;;;4.30;2.80;;;;;;;17.64;82.43;100001.88;2215545;40;20030;-85
2021/06/25 00:36:15;;;;;;;5.78;3.33;;;;;;;17.62;82.33;100002.06;2215720;40;20038;-86
2021/06/25 00:37:46;;;;;;;5.07;3.40;;;;;;;17.68;82.35;100015.84;2215618;40;20033;-87
2021/06/25 00:39:18;;;;;;;4.68;3.15;;;;;;;17.61;82.10;100013.91;2215590;40;20043;-85
2021/06/25 00:40:49;;;;;;;7.13;3.15;;;;;;;17.63;82.32;100011.00;2215662;40;20023;-85
2021/06/25 00:42:21;;;;;;;4.60;3.00;;;;;;;17.64;82.28;100011.84;2215571;40;20045;-87
2021/06/25 00:43:53;;;;;;;5.63;3.03;;;;;;;17.48;82.41;100016.47;2215534;40;20056;-84
2021/06/25 00:45:25;;;;;;;4.65;3.13;;;;;;;17.37;82.80;100011.56;2215542;40;20046;-85
2021/06/25 00:46:57;;;;;;;4.35;2.90;;;;;;;17.31;83.01;100008.59;2215857;40;20045;-84
2021/06/25 00:48:29;;;;;;;3.95;2.38;;;;;;;17.25;83.17;100014.75;2215611;40;20061;-85
2021/06/25 00:49:59;;;;;;;4.93;2.67;;;;;;;17.22;83.14;100012.44;2215653;40;20034;-85
2021/06/25 00:51:33;;;;;;;5.72;2.90;;;;;;;17.18;83.32;100023.78;2215352;40;20027;-83
2021/06/25 00:53:04;;;;;;;4.65;2.63;;;;;;;17.13;83.47;100018.97;2215460;40;20029;-85
2021/06/25 00:54:36;;;;;;;4.32;2.50;;;;;;;17.08;83.75;100024.09;2215626;40;20033;-87
2021/06/25 00:56:11;;;;;;;4.07;2.50;;;;;;;17.08;83.68;100018.69;2215829;40;20167;-87
2021/06/25 00:57:43;;;;;;;4.30;2.70;;;;;;;17.01;83.69;100021.31;2215790;40;20080;-85
2021/06/25 00:59:16;;;;;;;5.07;2.95;;;;;;;16.97;84.17;100018.16;2215621;40;20041;-87
2021/06/25 01:00:48;;;;;;;4.60;2.38;;;;;;;16.96;84.30;100027.28;2215599;40;20031;-85
2021/06/25 01:02:20;;;;;;;4.60;2.55;;;;;;;16.93;84.25;100015.97;2215592;40;20018;-87
2021/06/25 01:03:52;;;;;;;4.72;2.67;;;;;;;16.89;84.05;100026.31;2215642;40;20049;-86
2021/06/25 01:05:24;;;;;;;5.25;2.50;;;;;;;16.88;84.46;100021.09;2215558;40;20026;-87
2021/06/25 01:06:56;;;;;;;4.50;2.45;;;;;;;16.91;84.33;100029.66;2215671;40;20038;-87
2021/06/25 01:08:28;;;;;;;4.20;2.53;;;;;;;16.87;84.18;100024.81;2215515;40;20022;-86
2021/06/25 01:10:01;;;;;;;4.78;2.67;;;;;;;16.79;84.28;100017.66;2215686;40;20033;-87
2021/06/25 01:11:33;;;;;;;4.65;2.80;;;;;;;16.75;84.94;100029.84;2215929;40;20037;-86
2021/06/25 01:13:06;;;;;;;4.18;2.63;;;;;;;16.73;84.89;100031.88;2215642;40;20022;-86
2021/06/25 01:14:40;;;;;;;4.47;2.40;;;;;;;16.79;85.07;100023.88;2215500;40;20033;-86
2021/06/25 01:16:11;;;;;;;4.32;2.53;;;;;;;16.85;85.09;100025.00;2215546;40;20046;-86
2021/06/25 01:17:44;;;;;;;7.25;3.15;;;;;;;16.87;84.91;100028.38;2215735;40;20045;-85
2021/06/25 01:19:16;;;;;;;4.60;2.95;;;;;;;16.81;84.67;100019.16;2215420;40;20034;-85
2021/06/25 01:20:48;;;;;;;5.13;3.25;;;;;;;16.76;84.75;100018.88;2215111;40;20045;-87
2021/06/25 01:22:24;;;;;;;5.75;3.17;;;;;;;16.69;84.95;100026.03;2215555;40;20147;-86
2021/06/25 01:23:56;;;;;;;6.03;3.53;;;;;;;16.62;85.13;100017.84;2215536;40;20042;-86
2021/06/25 01:25:28;;;;;;;4.88;3.53;;;;;;;16.62;85.49;100019.69;2221542;40;20030;-85
2021/06/25 01:27:00;;;;;;;4.38;2.63;;;;;;;16.64;85.35;100023.88;2221711;40;20054;-86
2021/06/25 01:28:33;;;;;;;4.40;3.03;;;;;;;16.64;85.60;100015.78;2221749;40;20184;-87
2021/06/25 01:30:08;;;;;;;6.03;2.85;;;;;;;16.67;85.60;100014.59;2221662;40;20030;-86
2021/06/25 01:31:40;;;;;;;4.53;3.08;;;;;;;16.66;85.53;100016.44;2215641;40;20041;-87
2021/06/25 01:33:13;;;;;;;5.25;2.90;;;;;;;16.67;85.53;100020.81;2216460;40;20018;-85
2021/06/25 01:34:45;;;;;;;5.28;3.30;;;;;;;16.71;85.39;100015.06;2216361;40;20045;-85
2021/06/25 01:36:18;;;;;;;4.40;3.00;;;;;;;16.72;85.59;100020.25;2216449;40;20034;-86
2021/06/25 01:37:52;;;;;;;4.38;2.58;;;;;;;16.77;85.46;100014.31;2216489;40;20045;-85
2021/06/25 01:39:24;;;;;;;6.15;3.33;;;;;;;16.81;85.63;100008.34;2216710;40;20034;-86
2021/06/25 01:40:55;;;;;;;4.80;3.08;;;;;;;16.81;85.55;100015.63;2216143;40;20021;-87
2021/06/25 01:42:28;;;;;;;4.93;3.10;;;;;;;16.82;85.35;100010.03;2215959;40;20045;-87
2021/06/25 01:44:01;;;;;;;5.40;3.92;;;;;;;16.78;85.36;100015.97;2216280;40;20032;-87
2021/06/25 01:45:35;;;;;;;6.90;3.20;;;;;;;16.82;85.34;100014.56;2216400;40;20033;-85
2021/06/25 01:47:07;;;;;;;5.68;3.92;;;;;;;16.80;85.14;100017.47;2216288;40;20030;-87
2021/06/25 01:48:39;;;;;;;5.13;3.40;;;;;;;16.76;85.01;100015.31;2216368;40;20037;-86
2021/06/25 01:50:14;;;;;;;5.00;3.17;;;;;;;16.69;85.28;100010.69;2216404;40;20034;-87
2021/06/25 01:51:48;;;;;;;4.90;3.20;;;;;;;16.69;85.33;100010.69;2216579;40;20030;-86
2021/06/25 01:53:21;;;;;;;6.25;3.03;;;;;;;16.69;85.31;100012.53;2216471;40;20037;-86
2021/06/25 01:54:52;;;;;;;5.10;3.55;;;;;;;16.72;85.37;100014.03;2216355;40;20034;-87
2021/06/25 01:56:24;;;;;;;7.63;3.42;;;;;;;16.73;85.26;99996.78;2216302;40;20022;-85
2021/06/25 01:57:55;;;;;;;5.60;3.47;;;;;;;16.76;85.27;100007.22;2216221;40;20025;-87
2021/06/25 01:59:27;;;;;;;6.55;3.38;;;;;;;16.78;85.32;100013.28;2216254;40;20054;-86
2021/06/25 02:01:08;;;;;;;4.85;2.67;;;;;;;16.80;85.25;100005.84;2216177;40;20046;-85
2021/06/25 02:02:41;;;;;;;6.03;3.50;;;;;;;16.79;85.10;99998.78;2216716;40;20094;-86
2021/06/25 02:04:12;;;;;;;4.38;2.90;;;;;;;16.78;85.19;99989.00;2216506;40;20026;-87
2021/06/25 02:05:44;;;;;;;5.38;3.42;;;;;;;16.77;84.78;99996.22;2216123;40;20022;-86
2021/06/25 02:07:16;;;;;;;4.43;2.88;;;;;;;16.80;85.21;100000.44;2215806;40;20030;-86
2021/06/25 02:08:49;;;;;;;4.30;2.72;;;;;;;16.87;84.93;99990.56;2216107;40;20029;-87
2021/06/25 02:10:20;;;;;;;4.63;2.60;;;;;;;16.95;85.22;99993.19;2216184;40;20038;-87
2021/06/25 02:11:52;;;;;;;4.57;3.00;;;;;;;17.00;85.05;99996.16;2216242;40;20030;-88
2021/06/25 02:13:23;;;;;;;5.10;3.00;;;;;;;17.02;84.87;99997.84;2216149;40;20030;-85
2021/06/25 02:14:54;;;;;;;4.97;3.08;;;;;;;17.07;84.85;99998.13;2216180;40;20108;-86
2021/06/25 02:16:26;;;;;;;4.43;2.50;;;;;;;17.03;84.73;99999.50;2216170;40;20046;-87
2021/06/25 02:17:57;;;;;;;4.25;2.80;;;;;;;17.05;84.39;100002.88;2216298;40;20041;-86
2021/06/25 02:19:29;;;;;;;4.95;2.90;;;;;;;17.04;84.55;100002.03;2216147;40;20108;-87
2021/06/25 02:21:01;;;;;;;5.00;3.38;;;;;;;17.04;84.41;100006.59;2216192;40;20055;-87
2021/06/25 02:22:32;;;;;;;5.07;3.42;;;;;;;16.97;84.24;100001.09;2216307;40;20022;-86
2021/06/25 02:24:07;;;;;;;5.63;3.47;;;;;;;16.98;84.35;100000.06;2216322;40;20026;-85
2021/06/25 02:25:39;;;;;;;6.03;4.13;;;;;;;16.94;84.16;99996.91;2216493;40;20038;-87
2021/06/25 02:27:11;;;;;;;6.20;4.15;;;;;;;16.94;84.23;100002.31;2216638;40;20029;-87
2021/06/25 02:28:43;;;;;;;5.00;2.80;;;;;;;16.97;84.21;100006.50;2216123;40;20026;-87
2021/06/25 02:30:17;;;;;;;5.97;3.50;;;;;;;17.01;84.34;100002.41;2215790;40;20034;-88
2021/06/25 02:31:49;;;;;;;5.97;4.05;;;;;;;17.00;84.44;99998.03;2216142;40;20057;-87
2021/06/25 02:33:21;;;;;;;5.90;3.72;;;;;;;17.00;84.20;100000.72;2216301;40;20038;-87
2021/06/25 02:34:52;;;;;;;6.45;3.70;;;;;;;16.96;84.34;99989.47;2216445;40;20050;-88
2021/06/25 02:36:24;;;;;;;6.32;4.18;;;;;;;16.97;84.26;99988.44;2216388;40;20020;-87
2021/06/25 02:37:56;;;;;;;6.28;3.88;;;;;;;17.02;84.21;99997.84;2216193;40;20018;-86
2021/06/25 02:39:29;;;;;;;5.80;3.13;;;;;;;17.00;84.26;99990.75;2216311;40;20045;-88
2021/06/25 02:41:05;;;;;;;7.35;3.20;;;;;;;16.93;83.63;100000.63;2216264;40;20036;-87
2021/06/25 02:42:36;;;;;;;5.75;2.65;;;;;;;16.89;83.80;99993.06;2216293;40;20026;-87
2021/06/25 02:44:10;;;;;;;4.07;2.30;;;;;;;16.92;83.55;100000.81;2215652;40;20053;-88
2021/06/25 02:45:43;;;;;;;4.78;2.53;;;;;;;16.87;83.28;100001.38;2216243;40;20042;-87
2021/06/25 02:47:15;;;;;;;4.05;2.10;;;;;;;16.89;83.27;99993.06;2216190;40;20042;-87
2021/06/25 02:48:46;;;;;;;4.35;2.15;;;;;;;16.88;83.24;99997.66;2216086;40;20034;-85
2021/06/25 02:50:17;;;;;;;5.63;2.42;;;;;;;16.83;82.99;100009.00;2216524;40;20026;-86
2021/06/25 02:51:49;;;;;;;4.85;3.05;;;;;;;16.79;82.77;99999.59;2216048;40;20040;-85
2021/06/25 02:53:21;;;;;;;5.35;2.22;;;;;;;16.80;82.87;100001.28;2215973;40;20054;-89
2021/06/25 02:54:54;;;;;;;5.32;2.15;;;;;;;16.80;83.04;100000.44;2215980;40;20022;-86
2021/06/25 02:56:26;;;;;;;4.07;2.67;;;;;;;16.82;83.00;99996.53;2216189;40;20022;-86
2021/06/25 02:57:57;;;;;;;5.45;2.40;;;;;;;16.78;83.22;99997.09;2215952;40;20026;-87
2021/06/25 02:59:29;;;;;;;3.88;2.40;;;;;;;16.75;83.17;99992.06;2216037;40;20046;-86
2021/06/25 03:01:01;;;;;;;5.25;2.85;;;;;;;16.75;83.36;99984.81;2216120;40;20034;-86
2021/06/25 03:02:32;;;;;;;5.93;2.28;;;;;;;16.77;83.56;99998.09;2215883;40;20034;-89
2021/06/25 03:04:04;;;;;;;4.65;2.42;;;;;;;16.72;83.34;99992.44;2216030;40;20041;-86
2021/06/25 03:05:35;;;;;;;8.23;2.97;;;;;;;16.68;83.36;99995.50;2215967;40;20038;-85
2021/06/25 03:07:07;;;;;;;5.30;2.42;;;;;;;16.66;83.64;99989.44;2215996;40;20033;-84
2021/06/25 03:53:01;;;;;;;3.65;1.77;;;;;;;16.14;84.67;100001.13;2225914;40;20035;-82
2021/06/25 03:54:32;;;;;;;3.17;1.60;;;;;;;16.12;85.29;100003.97;2230373;40;20012;-82
2021/06/25 03:56:11;;;;;;;3.28;1.60;;;;;;;16.11;85.57;99999.59;2228430;40;20601;-82
2021/06/25 03:57:44;;;;;;;3.72;1.98;;;;;;;16.10;85.58;100005.19;2228073;40;20037;-85
2021/06/25 03:59:14;;;;;;;4.18;2.13;;;;;;;16.11;85.99;100006.88;2227668;40;20017;-85
2021/06/25 04:00:47;;;;;;;3.70;1.73;;;;;;;16.08;86.12;100008.09;2227824;40;20033;-86
2021/06/25 04:02:19;;;;;;;3.75;2.05;;;;;;;16.06;86.54;100010.94;2222781;40;20457;-85
2021/06/25 04:03:51;;;;;;;4.03;1.88;;;;;;;16.07;86.50;100006.41;2215067;40;20369;-86
2021/06/25 04:05:23;;;;;;;5.15;2.38;;;;;;;16.03;86.95;100005.06;2215596;40;20034;-86
2021/06/25 04:06:55;;;;;;;4.03;1.77;;;;;;;16.00;87.21;100003.59;2214541;40;20475;-84
2021/06/25 04:08:29;;;;;;;3.80;1.70;;;;;;;16.06;87.32;100010.94;2215135;40;20026;-87
2021/06/25 04:10:01;;;;;;;2.97;1.38;;;;;;;16.05;87.33;100006.59;2215346;40;20465;-84
2021/06/25 04:11:33;;;;;;;4.00;1.60;;;;;;;16.04;87.56;100007.59;2215500;40;20116;-86
2021/06/25 04:13:06;;;;;;;6.28;1.85;;;;;;;16.05;87.25;100009.28;2215176;40;20108;-87
2021/06/25 04:14:39;;;;;;;3.05;1.48;;;;;;;16.04;87.26;100007.59;2212789;40;20056;-84
2021/06/25 04:16:11;;;;;;;6.80;1.40;;;;;;;16.04;87.41;100006.75;2214419;40;20049;-85
2021/06/25 04:17:43;;;;;;;3.22;1.70;;;;;;;15.99;87.37;99999.22;2213743;40;20034;-83
2021/06/25 04:19:14;;;;;;;3.25;1.67;;;;;;;16.03;87.18;100000.53;2213905;40;20397;-83
2021/06/25 04:20:46;;;;;;;3.28;1.40;;;;;;;16.02;87.17;99998.00;2213912;40;20030;-86
2021/06/25 04:22:19;;;;;;;3.08;1.48;;;;;;;16.01;87.07;100009.84;2212900;40;20034;-83
2021/06/25 04:23:52;;;;;;;2.53;1.30;;;;;;;15.97;87.24;99995.84;2213096;40;20035;-82
2021/06/25 04:25:23;;;;;;;3.30;1.40;;;;;;;15.96;87.21;99999.59;2213166;40;20038;-82
2021/06/25 04:26:55;;;;;;;5.35;1.92;;;;;;;15.99;87.21;99999.22;2212890;40;20040;-83
2021/06/25 04:28:27;;;;;;;2.92;1.30;;;;;;;16.03;86.95;100003.22;2212810;40;20433;-83
2021/06/25 04:29:59;;;;;;;4.55;1.50;;;;;;;16.09;87.11;100003.50;2212663;40;20022;-83
2021/06/25 04:31:31;;;;;;;4.13;1.80;;;;;;;16.12;86.91;100001.28;2212350;40;20135;-83
2021/06/25 04:33:03;;;;;;;4.60;1.65;;;;;;;16.11;86.97;100002.31;2219548;40;20033;-83
2021/06/25 04:34:35;;;;;;;3.70;1.80;;;;;;;16.09;86.70;100009.75;2218241;40;20052;-83
2021/06/25 04:36:07;;;;;;;3.65;1.70;;;;;;;16.11;86.92;100005.00;2218533;40;20095;-83
2021/06/25 04:37:38;;;;;;;4.38;1.92;;;;;;;16.11;86.85;100006.88;2214244;40;20061;-86
2021/06/25 04:39:11;;;;;;;5.20;2.28;;;;;;;16.09;86.96;100001.66;2214520;40;20037;-85
2021/06/25 04:40:44;;;;;;;5.00;1.90;;;;;;;16.09;87.08;99998.13;2214737;40;20121;-85
2021/06/25 04:42:16;;;;;;;3.60;2.15;;;;;;;16.03;86.99;100005.94;2215042;40;20377;-84
2021/06/25 04:43:48;;;;;;;4.75;1.88;;;;;;;16.03;87.11;100005.94;2214760;40;20041;-86
2021/06/25 04:45:20;;;;;;;3.45;1.90;;;;;;;16.04;87.22;100004.06;2214469;40;20408;-86
2021/06/25 04:46:51;;;;;;;4.30;2.00;;;;;;;16.05;87.53;100009.28;2214118;40;20033;-84
2021/06/25 04:48:23;;;;;;;4.85;2.50;;;;;;;16.11;87.51;100004.19;2214153;40;20095;-85
2021/06/25 04:49:54;;;;;;;4.05;2.25;;;;;;;16.12;87.40;100000.47;2214222;40;20167;-84
2021/06/25 04:51:26;;;;;;;4.55;1.88;;;;;;;16.11;87.10;100002.31;2213850;40;20452;-82
2021/06/25 04:52:58;;;;;;;3.70;1.90;;;;;;;16.08;87.36;100005.38;2214093;40;20042;-84
2021/06/25 04:54:31;;;;;;;3.53;1.90;;;;;;;16.09;87.40;100004.38;2213189;40;20581;-83
2021/06/25 04:56:05;;;;;;;5.97;2.38;;;;;;;16.14;87.39;100006.53;2213378;40;20045;-84
2021/06/25 04:57:36;;;;;;;4.65;2.17;;;;;;;16.16;87.35;100002.63;2212646;40;20417;-84
2021/06/25 04:59:08;;;;;;;3.80;2.08;;;;;;;16.15;87.24;100000.94;2212245;40;20041;-84
2021/06/25 05:00:40;;;;;;;3.55;1.83;;;;;;;16.16;87.18;99993.66;2192131;40;20050;-84
2021/06/25 05:02:12;;;;;;;3.97;2.33;;;;;;;16.19;87.29;99998.72;2210582;40;20038;-81
2021/06/25 05:03:44;;;;;;;3.50;1.95;;;;;;;16.21;87.30;100002.06;2212723;40;20394;-82
2021/06/25 05:05:16;;;;;;;4.13;2.22;;;;;;;16.22;87.41;99998.34;2211905;40;20044;-84
2021/06/25 05:06:48;;;;;;;4.70;2.47;;;;;;;16.21;87.26;100002.88;2217044;40;20416;-84
2021/06/25 05:08:20;;;;;;;4.40;2.10;;;;;;;16.23;87.40;100000.03;2218355;40;20033;-83
2021/06/25 05:09:52;;;;;;;3.80;1.77;;;;;;;16.25;87.29;99997.97;2219070;40;20558;-82
2021/06/25 05:11:24;;;;;;;5.72;2.40;;;;;;;16.32;87.36;99998.06;2219597;40;20044;-82
2021/06/25 05:12:55;;;;;;;4.28;2.00;;;;;;;16.40;87.37;100005.25;2219397;40;20038;-83
2021/06/25 05:14:27;;;;;;;4.50;2.50;;;;;;;16.41;87.06;100001.53;2219641;40;20041;-83
2021/06/25 05:15:59;;;;;;;5.15;2.55;;;;;;;16.41;87.22;100006.94;2219119;40;20025;-82
2021/06/25 05:17:31;;;;;;;4.50;2.22;;;;;;;16.41;87.14;100002.38;2212433;40;20079;-83
2021/06/25 05:19:03;;;;;;;5.55;3.05;;;;;;;16.41;87.02;99996.97;2211728;40;20042;-83
2021/06/25 05:20:34;;;;;;;4.13;2.55;;;;;;;16.42;87.02;100000.53;2211898;40;20042;-81
2021/06/25 05:22:06;;;;;;;4.68;2.65;;;;;;;16.42;87.17;99997.81;2211736;40;20034;-83
2021/06/25 05:23:38;;;;;;;7.18;2.65;;;;;;;16.46;87.24;99999.13;2213540;40;20488;-84
2021/06/25 05:25:12;;;;;;;4.43;2.75;;;;;;;16.45;87.30;99992.03;2214871;40;20090;-85
2021/06/25 05:26:43;;;;;;;5.97;2.88;;;;;;;16.41;87.59;99990.75;2214151;40;20034;-85
2021/06/25 05:28:16;;;;;;;6.10;2.95;;;;;;;16.41;87.33;100002.38;2211743;40;20037;-84
2021/06/25 05:29:50;;;;;;;4.53;2.58;;;;;;;16.43;87.38;99994.09;2213087;40;20041;-84
2021/06/25 05:31:22;;;;;;;5.18;2.95;;;;;;;16.42;87.19;99998.66;2212388;40;20455;-83
2021/06/25 05:32:52;;;;;;;4.90;2.67;;;;;;;16.45;87.49;100003.69;2213293;40;20042;-85
2021/06/25 05:34:24;;;;;;;4.07;2.45;;;;;;;16.47;87.46;99996.25;2213188;40;20034;-84
2021/06/25 05:35:56;;;;;;;6.70;3.33;;;;;;;16.52;87.39;100009.19;2212413;40;20044;-83
2021/06/25 05:37:28;;;;;;;5.78;3.13;;;;;;;16.52;87.30;99998.41;2212421;40;20041;-82
2021/06/25 05:39:00;;;;;;;6.28;3.70;;;;;;;16.54;87.16;100004.41;2212391;40;20030;-82
2021/06/25 05:40:33;;;;;;;5.05;3.35;;;;;;;16.55;87.31;100000.69;2212578;40;20037;-81
2021/06/25 05:42:05;;;;;;;5.18;3.80;;;;;;;16.58;87.06;99999.53;2212683;40;20030;-84
2021/06/25 05:43:37;;;;;;;6.03;3.70;;;;;;;16.54;87.09;99999.03;2214045;40;20033;-83
2021/06/25 05:45:10;;;;;;;6.15;4.38;;;;;;;16.55;87.29;100003.41;2212632;40;20053;-83
2021/06/25 05:46:42;;;;;;;5.10;3.55;;;;;;;16.60;87.18;100000.16;2212290;40;20110;-82
2021/06/25 05:48:14;;;;;;;5.05;3.40;;;;;;;16.65;86.81;100005.84;2212506;40;20049;-83
2021/06/25 05:49:46;;;;;;;4.15;2.72;;;;;;;16.69;86.82;100005.28;2211934;40;20072;-82
2021/06/25 05:51:16;;;;;;;6.82;5.22;;;;;;;16.74;86.58;100003.88;2211986;40;20188;-82
2021/06/25 05:52:49;;;;;;;7.10;5.53;;;;;;;16.75;86.42;100002.84;2212978;40;20038;-87
2021/06/25 05:54:20;;;;;;;8.25;5.45;;;;;;;16.71;86.24;100006.97;2212618;40;20064;-82
2021/06/25 05:55:53;;;;;;;6.95;5.32;;;;;;;16.71;86.16;100009.66;2214304;40;20018;-83
2021/06/25 05:57:25;;;;;;;7.53;5.55;;;;;;;16.76;86.01;100007.22;2213795;40;20494;-82
2021/06/25 05:58:56;;;;;;;6.80;5.00;;;;;;;16.77;86.21;100006.22;2215516;40;20029;-81
2021/06/25 06:00:28;;;;;;;6.03;4.63;;;;;;;16.81;86.12;100007.53;2214287;40;20026;-83
2021/06/25 06:02:00;;;;;;;7.30;5.75;;;;;;;16.87;85.94;100008.59;2215140;40;20053;-84
2021/06/25 06:03:30;;;;;;;7.68;6.57;;;;;;;16.91;85.93;100009.94;2211173;40;20596;-84
2021/06/25 06:05:03;;;;;;;7.20;5.95;;;;;;;16.99;85.84;100010.72;2214867;40;20030;-83
2021/06/25 06:06:35;;;;;;;8.15;6.13;;;;;;;17.05;85.31;100005.56;2215531;40;20022;-83
2021/06/25 06:08:07;;;;;;;9.05;7.10;;;;;;;17.07;85.33;100008.91;2214938;40;20033;-83
2021/06/25 06:09:39;;;;;;;9.52;6.28;;;;;;;17.11;85.15;100005.66;2212422;40;20041;-85
2021/06/25 06:11:12;;;;;;;8.93;6.15;;;;;;;17.20;85.17;100006.38;2216044;40;20029;-83
2021/06/25 06:12:44;;;;;;;9.35;6.53;;;;;;;17.25;84.88;100008.50;2215840;40;20384;-83
2021/06/25 06:14:16;;;;;;;7.60;6.03;;;;;;;17.30;84.67;100006.91;2215918;40;20425;-85
2021/06/25 06:15:48;;;;;;;8.80;7.30;;;;;;;17.38;84.28;100013.25;2196257;40;20692;-84
2021/06/25 06:17:20;;;;;;;8.15;6.70;;;;;;;17.42;84.30;100014.53;2205109;40;20040;-83
2021/06/25 06:18:52;;;;;;;7.57;6.35;;;;;;;17.49;84.00;100015.44;2195927;40;20063;-85
2021/06/25 06:20:26;;;;;;;7.28;6.15;;;;;;;17.60;83.85;100023.03;2195570;40;20067;-84
2021/06/25 06:31:21;;;;;;;9.93;7.03;;;;;;;17.86;81.67;100021.63;2215720;40;20038;-83
2021/06/25 06:33:00;;;;;;;9.35;6.97;;;;;;;17.87;81.79;100028.72;2215879;40;20022;-85
2021/06/25 06:34:33;;;;;;;9.48;7.07;;;;;;;17.85;81.40;100027.25;2215687;40;20046;-83
2021/06/25 06:36:10;;;;;;;7.85;7.05;;;;;;;17.82;81.36;100025.78;2215829;40;20022;-84
2021/06/25 06:37:48;;;;;;;8.27;6.70;;;;;;;17.83;81.24;100034.69;2202740;40;20034;-84
2021/06/25 06:39:21;;;;;;;9.52;7.38;;;;;;;17.84;81.42;100036.38;2202783;40;20082;-84
2021/06/25 06:40:52;;;;;;;9.95;8.95;;;;;;;17.86;81.51;100031.63;2206108;40;20025;-84
2021/06/25 06:42:25;;;;;;;10.18;7.82;;;;;;;17.86;81.25;100031.63;2215802;40;20022;-85
2021/06/25 06:44:01;;;;;;;9.18;7.40;;;;;;;17.95;81.17;100040.47;2216546;40;20096;-87
2021/06/25 06:45:32;;;;;;;9.93;7.57;;;;;;;18.05;81.10;100036.41;2216463;40;20429;-85
2021/06/25 06:47:07;;;;;;;7.32;6.40;;;;;;;18.19;80.81;100037.38;2215946;40;20041;-84
2021/06/25 06:48:38;;;;;;;9.55;8.48;;;;;;;18.23;80.51;100046.75;2215460;40;20026;-85
2021/06/25 06:50:11;;;;;;;10.73;9.00;;;;;;;18.16;80.24;100036.94;2214605;40;20054;-84
2021/06/25 06:51:43;;;;;;;11.25;8.82;;;;;;;18.15;80.41;100037.97;2202741;40;20031;-86
2021/06/25 06:53:14;;;;;;;14.55;9.82;;;;;;;18.05;80.61;100040.97;2197210;40;20038;-84
2021/06/25 06:54:46;;;;;;;9.02;8.00;;;;;;;17.97;80.69;100041.09;2184924;40;20045;-85
2021/06/25 06:56:20;;;;;;;11.95;9.57;;;;;;;17.93;81.02;100036.06;2178581;40;20598;-84
2021/06/25 06:57:51;;;;;;;10.18;8.48;;;;;;;17.91;81.36;100038.13;2178386;40;20650;-86
2021/06/25 06:59:24;;;;;;;11.93;8.90;;;;;;;17.92;81.36;100042.50;2172890;41;20036;-85
2021/06/25 07:00:56;;;;;;;12.32;10.23;;;;;;;17.84;81.66;100045.34;2166436;41;20033;-86
2021/06/25 07:02:28;;;;;;;11.07;9.40;;;;;;;17.80;81.95;100049.44;2172898;41;20524;-86
2021/06/25 07:03:59;;;;;;;12.77;9.73;;;;;;;17.76;81.81;100054.41;2172876;41;20037;-84
2021/06/25 07:05:31;;;;;;;13.57;9.35;;;;;;;17.73;81.80;100043.97;2177284;40;20043;-85
2021/06/25 07:07:03;;;;;;;10.43;8.90;;;;;;;17.73;81.90;100048.56;2168601;41;20106;-84
2021/06/25 07:08:34;;;;;;;12.68;10.55;;;;;;;17.71;81.76;100046.03;2153251;41;20046;-84
2021/06/25 07:10:08;;;;;;;12.80;11.43;;;;;;;17.70;81.97;100054.31;2155177;41;20114;-84
2021/06/25 07:11:40;;;;;;;12.05;10.07;;;;;;;17.68;82.04;100054.53;2165833;41;20022;-82
2021/06/25 07:13:12;;;;;;;17.20;12.65;;;;;;;17.62;81.92;100050.72;2180138;40;20605;-86
2021/06/25 07:14:45;;;;;;;12.02;10.68;;;;;;;17.53;82.20;100059.97;2184097;41;20031;-85
2021/06/25 07:16:17;;;;;;;11.45;10.25;;;;;;;17.51;82.60;100053.91;2184584;40;20029;-85
2021/06/25 07:17:48;;;;;;;15.40;12.10;;;;;;;17.45;83.19;100054.69;2184646;40;20028;-85
2021/06/25 07:19:23;;;;;;;14.20;11.63;;;;;;;17.39;83.51;100050.88;2186659;40;20029;-87
2021/06/25 07:20:55;;;;;;;14.32;11.77;;;;;;;17.40;83.50;100057.97;2201798;40;20035;-87
2021/06/25 07:22:27;;;;;;;14.65;12.48;;;;;;;17.34;83.69;100052.47;2202231;40;20085;-87
2021/06/25 07:24:02;;;;;;;15.73;13.23;;;;;;;17.30;83.36;100057.41;2206765;40;20026;-84
2021/06/25 07:25:33;;;;;;;16.35;12.52;;;;;;;17.28;83.59;100057.63;2208031;40;20042;-84
2021/06/25 07:27:06;;;;;;;13.57;12.05;;;;;;;17.29;83.56;100063.84;2209220;40;20033;-83
2021/06/25 07:28:38;;;;;;;12.38;9.90;;;;;;;17.33;83.39;100059.75;2207159;40;20046;-84
2021/06/25 07:30:13;;;;;;;17.08;12.90;;;;;;;17.38;83.51;100062.72;2208909;40;20034;-83
2021/06/25 07:31:43;;;;;;;14.43;12.73;;;;;;;17.40;83.10;100062.50;2208582;40;20023;-85
2021/06/25 07:33:15;;;;;;;13.90;12.20;;;;;;;17.41;83.31;100062.34;2208110;40;20015;-86
2021/06/25 07:34:47;;;;;;;15.00;13.38;;;;;;;17.41;82.97;100061.47;2189883;40;20722;-85
2021/06/25 07:36:20;;;;;;;17.60;13.73;;;;;;;17.38;82.97;100057.31;2192707;40;20066;-86
2021/06/25 07:37:52;;;;;;;14.05;12.48;;;;;;;17.43;82.70;100056.72;2193910;40;20027;-84
2021/06/25 07:39:23;;;;;;;15.77;13.68;;;;;;;17.48;82.54;100067.78;2196665;40;20016;-84
2021/06/25 07:40:55;;;;;;;15.45;12.93;;;;;;;17.54;82.63;100067.06;2196993;40;20023;-84
2021/06/25 07:42:27;;;;;;;13.30;11.90;;;;;;;17.61;82.37;100067.97;2196533;40;20209;-83
2021/06/25 07:43:59;;;;;;;17.52;14.45;;;;;;;17.69;82.38;100064.31;2195698;40;20776;-86
2021/06/25 07:45:31;;;;;;;15.18;13.57;;;;;;;17.73;82.05;100065.59;2195845;40;20031;-84
2021/06/25 07:47:03;;;;;;;14.48;12.98;;;;;;;17.75;81.96;100058.13;2195506;40;20035;-84
2021/06/25 07:48:35;;;;;;;16.25;14.55;;;;;;;17.77;82.06;100063.34;2194722;40;20031;-85
2021/06/25 07:50:09;;;;;;;17.70;15.27;;;;;;;17.77;81.67;100060.63;2202277;40;20041;-86
2021/06/25 07:51:41;;;;;;;18.58;15.90;;;;;;;17.80;82.08;100062.16;2193933;40;20031;-84
2021/06/25 07:53:13;;;;;;;18.70;16.45;;;;;;;17.87;82.14;100054.94;2197710;40;21132;-83
2021/06/25 07:54:44;;;;;;;19.23;16.30;;;;;;;17.88;81.81;100057.44;2204860;40;20022;-84
2021/06/25 07:56:15;;;;;;;17.33;15.07;;;;;;;17.88;81.42;100052.03;2215519;40;20034;-84
2021/06/25 07:57:49;;;;;;;16.38;14.55;;;;;;;17.92;80.92;100060.59;2208948;40;20030;-84
2021/06/25 07:59:21;;;;;;;19.08;17.08;;;;;;;17.97;80.80;100060.03;2208557;40;20027;-84
2021/06/25 08:00:54;;;;;;;19.23;17.17;;;;;;;18.03;80.74;100056.59;2190771;40;20031;-85
2021/06/25 08:02:28;;;;;;;18.00;16.10;;;;;;;18.08;80.38;100062.22;2202914;40;20033;-84